sensor_id;sensor_type;location;lat;lon;timestamp;temperature;humidity
20839;DHT22;10580;51.092;6.828;2024-01-07T00:01:27;2.70;1.00
20839;DHT22;10580;51.092;6.828;2024-01-07T00:03:52;2.70;1.00
20839;DHT22;10580;51.092;6.828;2024-01-07T00:06:18;2.70;1.00
20839;DHT22;10580;51.092;6.828;2024-01-07T00:08:43;2.70;99.90
20839;DHT22;10580;51.092;6.828;2024-01-07T00:11:09;2.70;99.90
20839;DHT22;10580;51.092;6.828;2024-01-07T00:13:35;2.70;99.90
20839;DHT22;10580;51.092;6.828;2024-01-07T00:16:01;2.70;99.90
20839;DHT22;10580;51.092;6.828;2024-01-07T00:18:27;2.70;99.90
20839;DHT22;10580;51.092;6.828;2024-01-07T00:20:53;2.70;99.90
20839;DHT22;10580;51.092;6.828;2024-01-07T00:23:19;2.70;99.90
20839;DHT22;10580;51.092;6.828;2024-01-07T00:25:48;2.70;99.90
20839;DHT22;10580;51.092;6.828;2024-01-07T00:28:14;2.60;99.90
20839;DHT22;10580;51.092;6.828;2024-01-07T00:30:39;2.70;99.90
20839;DHT22;10580;51.092;6.828;2024-01-07T00:33:05;2.70;99.90
20839;DHT22;10580;51.092;6.828;2024-01-07T00:35:31;2.70;99.90
20839;DHT22;10580;51.092;6.828;2024-01-07T00:37:56;2.70;99.90
20839;DHT22;10580;51.092;6.828;2024-01-07T00:40:23;2.70;99.90
20839;DHT22;10580;51.092;6.828;2024-01-07T00:42:48;2.70;99.90
20839;DHT22;10580;51.092;6.828;2024-01-07T00:45:14;2.70;99.90
20839;DHT22;10580;51.092;6.828;2024-01-07T00:47:40;2.70;99.90
20839;DHT22;10580;51.092;6.828;2024-01-07T00:50:06;2.70;99.90
20839;DHT22;10580;51.092;6.828;2024-01-07T00:52:31;2.80;99.90
20839;DHT22;10580;51.092;6.828;2024-01-07T00:54:57;2.70;99.90
20839;DHT22;10580;51.092;6.828;2024-01-07T00:57:23;2.80;99.90
20839;DHT22;10580;51.092;6.828;2024-01-07T00:59:48;2.80;99.90
20839;DHT22;10580;51.092;6.828;2024-01-07T01:02:15;2.80;99.90
20839;DHT22;10580;51.092;6.828;2024-01-07T01:04:41;2.80;99.90
20839;DHT22;10580;51.092;6.828;2024-01-07T01:07:06;2.80;99.90
20839;DHT22;10580;51.092;6.828;2024-01-07T01:09:33;2.80;99.90
20839;DHT22;10580;51.092;6.828;2024-01-07T01:11:59;2.80;99.90
20839;DHT22;10580;51.092;6.828;2024-01-07T01:14:24;2.80;99.90
20839;DHT22;10580;51.092;6.828;2024-01-07T01:16:50;2.80;99.90
20839;DHT22;10580;51.092;6.828;2024-01-07T01:19:16;2.80;99.90
20839;DHT22;10580;51.092;6.828;2024-01-07T01:21:42;2.80;99.90
20839;DHT22;10580;51.092;6.828;2024-01-07T01:24:07;2.80;99.90
20839;DHT22;10580;51.092;6.828;2024-01-07T01:26:33;2.80;99.90
20839;DHT22;10580;51.092;6.828;2024-01-07T01:28:59;2.70;99.90
20839;DHT22;10580;51.092;6.828;2024-01-07T01:31:24;2.70;99.90
20839;DHT22;10580;51.092;6.828;2024-01-07T01:33:50;2.70;99.90
20839;DHT22;10580;51.092;6.828;2024-01-07T01:36:15;2.70;99.90
20839;DHT22;10580;51.092;6.828;2024-01-07T01:38:41;2.70;99.90
20839;DHT22;10580;51.092;6.828;2024-01-07T01:41:06;2.70;99.90
20839;DHT22;10580;51.092;6.828;2024-01-07T01:43:32;2.70;99.90
20839;DHT22;10580;51.092;6.828;2024-01-07T01:45:58;2.70;99.90
20839;DHT22;10580;51.092;6.828;2024-01-07T01:48:25;2.70;99.90
20839;DHT22;10580;51.092;6.828;2024-01-07T01:50:51;2.70;99.90
20839;DHT22;10580;51.092;6.828;2024-01-07T01:53:19;2.70;99.90
20839;DHT22;10580;51.092;6.828;2024-01-07T01:55:45;2.70;99.90
20839;DHT22;10580;51.092;6.828;2024-01-07T01:58:13;2.70;99.90
20839;DHT22;10580;51.092;6.828;2024-01-07T02:00:39;2.70;99.90
20839;DHT22;10580;51.092;6.828;2024-01-07T02:03:05;2.70;99.90
20839;DHT22;10580;51.092;6.828;2024-01-07T02:05:30;2.70;99.90
20839;DHT22;10580;51.092;6.828;2024-01-07T02:07:56;2.70;99.90
20839;DHT22;10580;51.092;6.828;2024-01-07T02:10:22;2.70;99.90
20839;DHT22;10580;51.092;6.828;2024-01-07T02:12:48;2.70;99.90
20839;DHT22;10580;51.092;6.828;2024-01-07T02:15:14;2.70;99.90
20839;DHT22;10580;51.092;6.828;2024-01-07T02:17:40;2.70;99.90
20839;DHT22;10580;51.092;6.828;2024-01-07T02:20:06;2.70;99.90
20839;DHT22;10580;51.092;6.828;2024-01-07T02:22:32;2.70;99.90
20839;DHT22;10580;51.092;6.828;2024-01-07T02:24:57;2.70;99.90
20839;DHT22;10580;51.092;6.828;2024-01-07T02:27:23;2.70;99.90
20839;DHT22;10580;51.092;6.828;2024-01-07T02:29:49;2.70;99.90
20839;DHT22;10580;51.092;6.828;2024-01-07T02:32:14;2.60;73.80
20839;DHT22;10580;51.092;6.828;2024-01-07T02:34:40;2.60;43.20
20839;DHT22;10580;51.092;6.828;2024-01-07T02:37:05;2.60;51.30
20839;DHT22;10580;51.092;6.828;2024-01-07T02:39:31;2.60;45.90
20839;DHT22;10580;51.092;6.828;2024-01-07T02:41:56;2.60;55.80
20839;DHT22;10580;51.092;6.828;2024-01-07T02:44:22;2.60;64.20
20839;DHT22;10580;51.092;6.828;2024-01-07T02:46:47;2.60;47.30
20839;DHT22;10580;51.092;6.828;2024-01-07T02:49:13;2.60;12.20
20839;DHT22;10580;51.092;6.828;2024-01-07T02:51:39;2.60;1.00
20839;DHT22;10580;51.092;6.828;2024-01-07T02:54:04;2.60;1.00
20839;DHT22;10580;51.092;6.828;2024-01-07T02:56:30;2.60;1.00
20839;DHT22;10580;51.092;6.828;2024-01-07T02:58:55;2.60;13.40
20839;DHT22;10580;51.092;6.828;2024-01-07T03:01:24;2.60;45.30
20839;DHT22;10580;51.092;6.828;2024-01-07T03:03:50;2.60;37.00
20839;DHT22;10580;51.092;6.828;2024-01-07T03:06:16;2.60;13.10
20839;DHT22;10580;51.092;6.828;2024-01-07T03:08:42;2.60;36.20
20839;DHT22;10580;51.092;6.828;2024-01-07T03:11:08;2.60;60.60
20839;DHT22;10580;51.092;6.828;2024-01-07T03:13:33;2.60;49.20
20839;DHT22;10580;51.092;6.828;2024-01-07T03:15:59;2.60;63.10
20839;DHT22;10580;51.092;6.828;2024-01-07T03:18:26;2.60;51.70
20839;DHT22;10580;51.092;6.828;2024-01-07T03:20:52;2.50;31.50
20839;DHT22;10580;51.092;6.828;2024-01-07T03:23:17;2.50;21.60
20839;DHT22;10580;51.092;6.828;2024-01-07T03:25:44;2.50;55.20
20839;DHT22;10580;51.092;6.828;2024-01-07T03:28:09;2.50;99.90
20839;DHT22;10580;51.092;6.828;2024-01-07T03:30:35;2.60;99.90
20839;DHT22;10580;51.092;6.828;2024-01-07T03:33:01;2.50;99.90
20839;DHT22;10580;51.092;6.828;2024-01-07T03:35:26;2.50;99.90
20839;DHT22;10580;51.092;6.828;2024-01-07T03:37:52;2.50;99.90
20839;DHT22;10580;51.092;6.828;2024-01-07T03:40:18;2.50;99.90
20839;DHT22;10580;51.092;6.828;2024-01-07T03:42:43;2.50;99.90
20839;DHT22;10580;51.092;6.828;2024-01-07T03:45:09;2.50;99.90
20839;DHT22;10580;51.092;6.828;2024-01-07T03:47:34;2.50;99.90
20839;DHT22;10580;51.092;6.828;2024-01-07T03:50:00;2.50;99.90
20839;DHT22;10580;51.092;6.828;2024-01-07T03:52:25;2.40;99.90
20839;DHT22;10580;51.092;6.828;2024-01-07T03:54:51;2.40;91.80
20839;DHT22;10580;51.092;6.828;2024-01-07T03:57:16;2.40;58.20
20839;DHT22;10580;51.092;6.828;2024-01-07T03:59:42;2.40;62.80
20839;DHT22;10580;51.092;6.828;2024-01-07T04:02:07;2.50;40.70
20839;DHT22;10580;51.092;6.828;2024-01-07T04:04:33;2.40;1.00
20839;DHT22;10580;51.092;6.828;2024-01-07T04:06:58;2.40;1.00
20839;DHT22;10580;51.092;6.828;2024-01-07T04:09:24;2.40;1.00
20839;DHT22;10580;51.092;6.828;2024-01-07T04:11:50;2.50;1.00
20839;DHT22;10580;51.092;6.828;2024-01-07T04:14:15;2.50;1.00
20839;DHT22;10580;51.092;6.828;2024-01-07T04:16:41;2.50;1.00
20839;DHT22;10580;51.092;6.828;2024-01-07T04:19:07;2.50;1.00
20839;DHT22;10580;51.092;6.828;2024-01-07T04:21:32;2.50;1.00
20839;DHT22;10580;51.092;6.828;2024-01-07T04:23:58;2.40;1.00
20839;DHT22;10580;51.092;6.828;2024-01-07T04:26:24;2.50;1.00
20839;DHT22;10580;51.092;6.828;2024-01-07T04:28:50;2.50;1.00
20839;DHT22;10580;51.092;6.828;2024-01-07T04:31:15;2.50;1.00
20839;DHT22;10580;51.092;6.828;2024-01-07T04:33:41;2.50;1.00
20839;DHT22;10580;51.092;6.828;2024-01-07T04:36:06;2.50;1.00
20839;DHT22;10580;51.092;6.828;2024-01-07T04:38:32;2.40;1.00
20839;DHT22;10580;51.092;6.828;2024-01-07T04:40:58;2.40;1.00
20839;DHT22;10580;51.092;6.828;2024-01-07T04:43:23;2.40;1.00
20839;DHT22;10580;51.092;6.828;2024-01-07T04:45:49;2.40;1.00
20839;DHT22;10580;51.092;6.828;2024-01-07T04:48:14;2.30;1.00
20839;DHT22;10580;51.092;6.828;2024-01-07T04:50:43;2.30;1.00
20839;DHT22;10580;51.092;6.828;2024-01-07T04:53:09;2.30;1.00
20839;DHT22;10580;51.092;6.828;2024-01-07T04:55:34;2.20;1.00
20839;DHT22;10580;51.092;6.828;2024-01-07T04:58:00;2.20;1.00
20839;DHT22;10580;51.092;6.828;2024-01-07T05:00:27;2.10;1.00
20839;DHT22;10580;51.092;6.828;2024-01-07T05:02:52;2.10;1.00
20839;DHT22;10580;51.092;6.828;2024-01-07T05:05:18;2.10;1.00
20839;DHT22;10580;51.092;6.828;2024-01-07T05:07:43;2.00;1.00
20839;DHT22;10580;51.092;6.828;2024-01-07T05:10:09;2.00;1.00
20839;DHT22;10580;51.092;6.828;2024-01-07T05:12:35;2.00;54.50
20839;DHT22;10580;51.092;6.828;2024-01-07T05:15:00;2.10;99.90
20839;DHT22;10580;51.092;6.828;2024-01-07T05:17:26;2.10;99.90
20839;DHT22;10580;51.092;6.828;2024-01-07T05:19:51;2.10;99.90
20839;DHT22;10580;51.092;6.828;2024-01-07T05:22:17;2.10;99.90
20839;DHT22;10580;51.092;6.828;2024-01-07T05:24:42;2.10;99.90
20839;DHT22;10580;51.092;6.828;2024-01-07T05:27:09;2.00;99.90
20839;DHT22;10580;51.092;6.828;2024-01-07T05:29:34;2.00;99.90
20839;DHT22;10580;51.092;6.828;2024-01-07T05:32:00;2.00;99.90
20839;DHT22;10580;51.092;6.828;2024-01-07T05:34:27;2.00;99.90
20839;DHT22;10580;51.092;6.828;2024-01-07T05:36:53;2.00;99.90
20839;DHT22;10580;51.092;6.828;2024-01-07T05:39:18;1.90;86.80
20839;DHT22;10580;51.092;6.828;2024-01-07T05:41:44;1.90;30.10
20839;DHT22;10580;51.092;6.828;2024-01-07T05:44:09;1.90;1.00
20839;DHT22;10580;51.092;6.828;2024-01-07T05:46:38;1.90;1.00
20839;DHT22;10580;51.092;6.828;2024-01-07T05:49:05;1.80;1.00
20839;DHT22;10580;51.092;6.828;2024-01-07T05:51:31;1.80;1.00
20839;DHT22;10580;51.092;6.828;2024-01-07T05:53:57;1.80;1.00
20839;DHT22;10580;51.092;6.828;2024-01-07T05:56:22;1.80;1.00
20839;DHT22;10580;51.092;6.828;2024-01-07T05:58:48;1.90;1.00
20839;DHT22;10580;51.092;6.828;2024-01-07T06:01:21;1.80;99.90
20839;DHT22;10580;51.092;6.828;2024-01-07T06:03:47;1.90;99.90
20839;DHT22;10580;51.092;6.828;2024-01-07T06:06:14;1.90;99.90
20839;DHT22;10580;51.092;6.828;2024-01-07T06:08:41;2.00;99.90
20839;DHT22;10580;51.092;6.828;2024-01-07T06:11:06;1.90;1.00
20839;DHT22;10580;51.092;6.828;2024-01-07T06:13:32;2.00;1.00
20839;DHT22;10580;51.092;6.828;2024-01-07T06:15:57;1.90;1.00
20839;DHT22;10580;51.092;6.828;2024-01-07T06:18:23;1.90;1.00
20839;DHT22;10580;51.092;6.828;2024-01-07T06:20:49;1.90;1.00
20839;DHT22;10580;51.092;6.828;2024-01-07T06:23:14;1.90;1.00
20839;DHT22;10580;51.092;6.828;2024-01-07T06:25:40;2.00;1.00
20839;DHT22;10580;51.092;6.828;2024-01-07T06:28:06;1.90;1.00
20839;DHT22;10580;51.092;6.828;2024-01-07T06:30:31;1.90;99.90
20839;DHT22;10580;51.092;6.828;2024-01-07T06:32:57;1.80;99.90
20839;DHT22;10580;51.092;6.828;2024-01-07T06:35:22;1.70;99.90
20839;DHT22;10580;51.092;6.828;2024-01-07T06:37:48;1.70;99.90
20839;DHT22;10580;51.092;6.828;2024-01-07T06:40:14;1.70;99.90
20839;DHT22;10580;51.092;6.828;2024-01-07T06:42:39;1.70;99.90
20839;DHT22;10580;51.092;6.828;2024-01-07T06:45:06;1.60;99.90
20839;DHT22;10580;51.092;6.828;2024-01-07T06:47:32;1.60;99.90
20839;DHT22;10580;51.092;6.828;2024-01-07T06:49:57;1.60;99.90
20839;DHT22;10580;51.092;6.828;2024-01-07T06:52:23;1.70;99.90
20839;DHT22;10580;51.092;6.828;2024-01-07T06:54:49;1.60;99.90
20839;DHT22;10580;51.092;6.828;2024-01-07T06:57:14;1.70;99.90
20839;DHT22;10580;51.092;6.828;2024-01-07T06:59:40;1.70;99.90
20839;DHT22;10580;51.092;6.828;2024-01-07T07:02:05;1.70;99.90
20839;DHT22;10580;51.092;6.828;2024-01-07T07:04:31;1.70;99.90
20839;DHT22;10580;51.092;6.828;2024-01-07T07:06:56;1.70;99.90
20839;DHT22;10580;51.092;6.828;2024-01-07T07:09:23;1.70;99.90
20839;DHT22;10580;51.092;6.828;2024-01-07T07:11:48;1.70;99.90
20839;DHT22;10580;51.092;6.828;2024-01-07T07:14:14;1.70;99.90
20839;DHT22;10580;51.092;6.828;2024-01-07T07:16:39;1.70;99.90
20839;DHT22;10580;51.092;6.828;2024-01-07T07:19:05;1.70;55.70
20839;DHT22;10580;51.092;6.828;2024-01-07T07:21:31;1.70;1.00
20839;DHT22;10580;51.092;6.828;2024-01-07T07:23:57;1.70;1.00
20839;DHT22;10580;51.092;6.828;2024-01-07T07:26:23;1.60;1.00
20839;DHT22;10580;51.092;6.828;2024-01-07T07:28:48;1.60;1.00
20839;DHT22;10580;51.092;6.828;2024-01-07T07:31:14;1.60;1.00
20839;DHT22;10580;51.092;6.828;2024-01-07T07:33:40;1.60;1.00
20839;DHT22;10580;51.092;6.828;2024-01-07T07:36:06;1.60;1.00
20839;DHT22;10580;51.092;6.828;2024-01-07T07:38:32;1.60;1.00
20839;DHT22;10580;51.092;6.828;2024-01-07T07:40:58;1.60;1.00
20839;DHT22;10580;51.092;6.828;2024-01-07T07:43:24;1.60;1.00
20839;DHT22;10580;51.092;6.828;2024-01-07T07:45:50;1.60;1.00
20839;DHT22;10580;51.092;6.828;2024-01-07T07:48:16;1.60;1.00
20839;DHT22;10580;51.092;6.828;2024-01-07T07:50:42;1.60;1.00
20839;DHT22;10580;51.092;6.828;2024-01-07T07:53:07;1.60;1.00
20839;DHT22;10580;51.092;6.828;2024-01-07T07:55:33;1.60;1.00
20839;DHT22;10580;51.092;6.828;2024-01-07T07:57:59;1.60;1.00
20839;DHT22;10580;51.092;6.828;2024-01-07T08:00:24;1.60;1.00
20839;DHT22;10580;51.092;6.828;2024-01-07T08:02:50;1.60;1.00
20839;DHT22;10580;51.092;6.828;2024-01-07T08:05:15;1.60;1.00
20839;DHT22;10580;51.092;6.828;2024-01-07T08:07:41;1.60;1.00
20839;DHT22;10580;51.092;6.828;2024-01-07T08:10:07;1.60;1.00
20839;DHT22;10580;51.092;6.828;2024-01-07T08:12:33;1.50;1.00
20839;DHT22;10580;51.092;6.828;2024-01-07T08:14:59;1.60;1.00
20839;DHT22;10580;51.092;6.828;2024-01-07T08:17:24;1.60;1.00
20839;DHT22;10580;51.092;6.828;2024-01-07T08:19:50;1.60;1.00
20839;DHT22;10580;51.092;6.828;2024-01-07T08:22:16;1.60;1.00
20839;DHT22;10580;51.092;6.828;2024-01-07T08:24:41;1.60;1.00
20839;DHT22;10580;51.092;6.828;2024-01-07T08:27:08;1.60;1.00
20839;DHT22;10580;51.092;6.828;2024-01-07T08:29:33;1.50;1.00
20839;DHT22;10580;51.092;6.828;2024-01-07T08:31:59;1.50;1.00
20839;DHT22;10580;51.092;6.828;2024-01-07T08:34:24;1.50;1.00
20839;DHT22;10580;51.092;6.828;2024-01-07T08:36:50;1.50;1.00
20839;DHT22;10580;51.092;6.828;2024-01-07T08:39:15;1.50;1.00
20839;DHT22;10580;51.092;6.828;2024-01-07T08:41:41;1.50;1.00
20839;DHT22;10580;51.092;6.828;2024-01-07T08:44:07;1.50;1.00
20839;DHT22;10580;51.092;6.828;2024-01-07T08:46:34;1.50;1.00
20839;DHT22;10580;51.092;6.828;2024-01-07T08:49:00;1.50;1.00
20839;DHT22;10580;51.092;6.828;2024-01-07T08:51:25;1.60;1.00
20839;DHT22;10580;51.092;6.828;2024-01-07T08:53:51;1.50;1.00
20839;DHT22;10580;51.092;6.828;2024-01-07T08:56:16;1.50;1.00
20839;DHT22;10580;51.092;6.828;2024-01-07T08:58:42;1.50;1.00
20839;DHT22;10580;51.092;6.828;2024-01-07T09:01:07;1.50;1.00
20839;DHT22;10580;51.092;6.828;2024-01-07T09:03:33;1.50;1.00
20839;DHT22;10580;51.092;6.828;2024-01-07T09:05:59;1.50;1.00
20839;DHT22;10580;51.092;6.828;2024-01-07T09:08:24;1.50;1.00
20839;DHT22;10580;51.092;6.828;2024-01-07T09:10:50;1.50;1.00
20839;DHT22;10580;51.092;6.828;2024-01-07T09:13:16;1.50;99.90
20839;DHT22;10580;51.092;6.828;2024-01-07T09:15:41;1.50;99.90
20839;DHT22;10580;51.092;6.828;2024-01-07T09:18:07;1.50;99.90
20839;DHT22;10580;51.092;6.828;2024-01-07T09:20:33;1.60;99.90
20839;DHT22;10580;51.092;6.828;2024-01-07T09:22:59;1.60;1.00
20839;DHT22;10580;51.092;6.828;2024-01-07T09:25:24;1.50;99.90
20839;DHT22;10580;51.092;6.828;2024-01-07T09:27:51;1.50;99.90
20839;DHT22;10580;51.092;6.828;2024-01-07T09:30:17;1.50;99.90
20839;DHT22;10580;51.092;6.828;2024-01-07T09:32:43;1.50;1.00
20839;DHT22;10580;51.092;6.828;2024-01-07T09:35:09;1.40;1.00
20839;DHT22;10580;51.092;6.828;2024-01-07T09:37:35;1.40;1.00
20839;DHT22;10580;51.092;6.828;2024-01-07T09:40:04;1.40;1.00
20839;DHT22;10580;51.092;6.828;2024-01-07T09:42:31;1.40;1.00
20839;DHT22;10580;51.092;6.828;2024-01-07T09:44:56;1.40;1.00
20839;DHT22;10580;51.092;6.828;2024-01-07T09:47:22;1.30;1.00
20839;DHT22;10580;51.092;6.828;2024-01-07T09:49:49;1.30;1.00
20839;DHT22;10580;51.092;6.828;2024-01-07T09:52:14;1.30;1.00
20839;DHT22;10580;51.092;6.828;2024-01-07T09:54:40;1.30;1.00
20839;DHT22;10580;51.092;6.828;2024-01-07T09:57:07;1.30;1.00
20839;DHT22;10580;51.092;6.828;2024-01-07T09:59:36;1.30;1.90
20839;DHT22;10580;51.092;6.828;2024-01-07T10:02:02;1.30;1.00
20839;DHT22;10580;51.092;6.828;2024-01-07T10:04:29;1.30;1.00
20839;DHT22;10580;51.092;6.828;2024-01-07T10:06:55;1.30;1.00
20839;DHT22;10580;51.092;6.828;2024-01-07T10:09:33;1.40;99.90
20839;DHT22;10580;51.092;6.828;2024-01-07T10:11:58;1.50;99.90
20839;DHT22;10580;51.092;6.828;2024-01-07T10:14:24;1.50;1.00
20839;DHT22;10580;51.092;6.828;2024-01-07T10:16:54;1.40;1.00
20839;DHT22;10580;51.092;6.828;2024-01-07T10:19:23;1.40;1.00
20839;DHT22;10580;51.092;6.828;2024-01-07T10:22:05;1.40;1.00
20839;DHT22;10580;51.092;6.828;2024-01-07T10:24:40;1.40;1.00
20839;DHT22;10580;51.092;6.828;2024-01-07T10:27:07;1.40;1.00
20839;DHT22;10580;51.092;6.828;2024-01-07T10:29:33;1.40;1.00
20839;DHT22;10580;51.092;6.828;2024-01-07T10:32:02;1.40;1.00
20839;DHT22;10580;51.092;6.828;2024-01-07T10:34:34;1.40;1.00
20839;DHT22;10580;51.092;6.828;2024-01-07T10:37:01;1.40;1.00
20839;DHT22;10580;51.092;6.828;2024-01-07T10:39:29;1.40;99.90
20839;DHT22;10580;51.092;6.828;2024-01-07T10:41:56;1.40;99.90
20839;DHT22;10580;51.092;6.828;2024-01-07T10:44:26;1.40;99.90
20839;DHT22;10580;51.092;6.828;2024-01-07T10:46:54;1.40;99.90
20839;DHT22;10580;51.092;6.828;2024-01-07T10:49:23;1.40;99.90
20839;DHT22;10580;51.092;6.828;2024-01-07T10:54:30;1.40;97.50
20839;DHT22;10580;51.092;6.828;2024-01-07T10:57:18;1.40;99.90
20839;DHT22;10580;51.092;6.828;2024-01-07T10:59:47;1.40;1.00
20839;DHT22;10580;51.092;6.828;2024-01-07T11:02:17;1.40;1.00
20839;DHT22;10580;51.092;6.828;2024-01-07T11:04:49;1.40;1.00
20839;DHT22;10580;51.092;6.828;2024-01-07T11:07:38;1.40;27.80
20839;DHT22;10580;51.092;6.828;2024-01-07T11:10:13;1.50;1.00
20839;DHT22;10580;51.092;6.828;2024-01-07T11:12:40;1.60;1.00
20839;DHT22;10580;51.092;6.828;2024-01-07T11:15:05;1.60;99.90
20839;DHT22;10580;51.092;6.828;2024-01-07T11:20:07;1.70;99.90
20839;DHT22;10580;51.092;6.828;2024-01-07T11:22:37;1.60;1.00
20839;DHT22;10580;51.092;6.828;2024-01-07T11:25:30;1.60;1.00
20839;DHT22;10580;51.092;6.828;2024-01-07T11:28:01;1.50;1.00
20839;DHT22;10580;51.092;6.828;2024-01-07T11:30:27;1.50;72.10
20839;DHT22;10580;51.092;6.828;2024-01-07T11:32:59;1.50;1.00
20839;DHT22;10580;51.092;6.828;2024-01-07T11:35:54;1.50;1.00
20839;DHT22;10580;51.092;6.828;2024-01-07T11:38:20;1.40;1.00
20839;DHT22;10580;51.092;6.828;2024-01-07T11:40:47;1.40;1.00
20839;DHT22;10580;51.092;6.828;2024-01-07T11:43:14;1.40;1.00
20839;DHT22;10580;51.092;6.828;2024-01-07T11:45:39;1.40;1.00
20839;DHT22;10580;51.092;6.828;2024-01-07T11:48:05;1.40;1.00
20839;DHT22;10580;51.092;6.828;2024-01-07T11:50:31;1.40;1.00
20839;DHT22;10580;51.092;6.828;2024-01-07T11:52:57;1.40;1.00
20839;DHT22;10580;51.092;6.828;2024-01-07T11:55:22;1.30;1.00
20839;DHT22;10580;51.092;6.828;2024-01-07T11:57:48;1.30;1.00
20839;DHT22;10580;51.092;6.828;2024-01-07T12:00:14;1.30;1.00
20839;DHT22;10580;51.092;6.828;2024-01-07T12:02:40;1.40;1.00
20839;DHT22;10580;51.092;6.828;2024-01-07T12:05:06;1.30;1.00
20839;DHT22;10580;51.092;6.828;2024-01-07T12:07:31;1.30;1.00
20839;DHT22;10580;51.092;6.828;2024-01-07T12:09:57;1.20;99.90
20839;DHT22;10580;51.092;6.828;2024-01-07T12:12:24;1.20;1.00
20839;DHT22;10580;51.092;6.828;2024-01-07T12:14:50;1.20;1.00
20839;DHT22;10580;51.092;6.828;2024-01-07T12:17:18;1.20;99.90
20839;DHT22;10580;51.092;6.828;2024-01-07T12:19:44;1.20;99.90
20839;DHT22;10580;51.092;6.828;2024-01-07T12:22:09;1.20;99.90
20839;DHT22;10580;51.092;6.828;2024-01-07T12:24:35;1.20;99.90
20839;DHT22;10580;51.092;6.828;2024-01-07T12:27:05;1.20;99.90
20839;DHT22;10580;51.092;6.828;2024-01-07T12:29:30;1.20;34.20
20839;DHT22;10580;51.092;6.828;2024-01-07T12:31:56;1.20;1.00
20839;DHT22;10580;51.092;6.828;2024-01-07T12:34:21;1.10;30.20
20839;DHT22;10580;51.092;6.828;2024-01-07T12:36:49;1.20;99.90
20839;DHT22;10580;51.092;6.828;2024-01-07T12:39:14;1.20;99.90
20839;DHT22;10580;51.092;6.828;2024-01-07T12:41:40;1.20;99.90
20839;DHT22;10580;51.092;6.828;2024-01-07T12:44:05;1.20;99.90
20839;DHT22;10580;51.092;6.828;2024-01-07T12:46:34;1.20;99.90
20839;DHT22;10580;51.092;6.828;2024-01-07T12:48:59;1.20;1.00
20839;DHT22;10580;51.092;6.828;2024-01-07T12:51:25;1.20;1.00
20839;DHT22;10580;51.092;6.828;2024-01-07T12:53:50;1.10;1.00
20839;DHT22;10580;51.092;6.828;2024-01-07T12:56:16;1.10;1.00
20839;DHT22;10580;51.092;6.828;2024-01-07T12:58:42;1.00;1.00
20839;DHT22;10580;51.092;6.828;2024-01-07T13:01:07;1.00;1.00
20839;DHT22;10580;51.092;6.828;2024-01-07T13:03:33;1.00;1.00
20839;DHT22;10580;51.092;6.828;2024-01-07T13:05:59;1.00;1.00
20839;DHT22;10580;51.092;6.828;2024-01-07T13:08:24;1.00;1.00
20839;DHT22;10580;51.092;6.828;2024-01-07T13:10:54;1.00;1.00
20839;DHT22;10580;51.092;6.828;2024-01-07T13:13:20;1.00;1.00
20839;DHT22;10580;51.092;6.828;2024-01-07T13:15:46;1.00;1.00
20839;DHT22;10580;51.092;6.828;2024-01-07T13:18:11;0.90;99.90
20839;DHT22;10580;51.092;6.828;2024-01-07T13:20:40;0.80;99.90
20839;DHT22;10580;51.092;6.828;2024-01-07T13:23:06;0.70;99.90
20839;DHT22;10580;51.092;6.828;2024-01-07T13:25:32;0.70;99.90
20839;DHT22;10580;51.092;6.828;2024-01-07T13:27:57;0.80;99.90
20839;DHT22;10580;51.092;6.828;2024-01-07T13:30:27;0.70;13.30
20839;DHT22;10580;51.092;6.828;2024-01-07T13:32:52;0.60;82.10
20839;DHT22;10580;51.092;6.828;2024-01-07T13:35:22;0.70;99.90
20839;DHT22;10580;51.092;6.828;2024-01-07T13:37:47;0.60;14.40
20839;DHT22;10580;51.092;6.828;2024-01-07T13:40:13;0.60;1.00
20839;DHT22;10580;51.092;6.828;2024-01-07T13:42:40;0.60;6.50
20839;DHT22;10580;51.092;6.828;2024-01-07T13:45:05;0.60;63.90
20839;DHT22;10580;51.092;6.828;2024-01-07T13:47:34;0.60;99.90
20839;DHT22;10580;51.092;6.828;2024-01-07T13:50:01;0.60;99.90
20839;DHT22;10580;51.092;6.828;2024-01-07T13:52:27;0.50;1.00
20839;DHT22;10580;51.092;6.828;2024-01-07T13:54:55;0.50;1.00
20839;DHT22;10580;51.092;6.828;2024-01-07T13:57:20;0.40;1.00
20839;DHT22;10580;51.092;6.828;2024-01-07T13:59:46;0.30;1.00
20839;DHT22;10580;51.092;6.828;2024-01-07T14:02:11;0.30;1.00
20839;DHT22;10580;51.092;6.828;2024-01-07T14:04:38;0.20;1.00
20839;DHT22;10580;51.092;6.828;2024-01-07T14:07:03;0.20;1.00
20839;DHT22;10580;51.092;6.828;2024-01-07T14:09:29;0.20;1.00
20839;DHT22;10580;51.092;6.828;2024-01-07T14:11:58;0.20;1.00
20839;DHT22;10580;51.092;6.828;2024-01-07T14:14:24;0.20;1.00
20839;DHT22;10580;51.092;6.828;2024-01-07T14:16:49;0.20;1.00
20839;DHT22;10580;51.092;6.828;2024-01-07T14:19:15;0.20;7.30
20839;DHT22;10580;51.092;6.828;2024-01-07T14:21:41;0.20;1.00
20839;DHT22;10580;51.092;6.828;2024-01-07T14:24:07;0.20;1.00
20839;DHT22;10580;51.092;6.828;2024-01-07T14:26:33;0.20;1.00
20839;DHT22;10580;51.092;6.828;2024-01-07T14:28:58;0.20;99.90
20839;DHT22;10580;51.092;6.828;2024-01-07T14:31:24;0.10;99.90
20839;DHT22;10580;51.092;6.828;2024-01-07T14:33:50;0.10;99.90
20839;DHT22;10580;51.092;6.828;2024-01-07T14:36:16;0.10;99.90
20839;DHT22;10580;51.092;6.828;2024-01-07T14:38:47;0.10;99.90
20839;DHT22;10580;51.092;6.828;2024-01-07T14:41:14;0.10;99.90
20839;DHT22;10580;51.092;6.828;2024-01-07T14:43:39;0.10;99.90
20839;DHT22;10580;51.092;6.828;2024-01-07T14:46:08;0.10;37.00
20839;DHT22;10580;51.092;6.828;2024-01-07T14:48:35;0.10;36.30
20839;DHT22;10580;51.092;6.828;2024-01-07T14:51:01;0.20;1.00
20839;DHT22;10580;51.092;6.828;2024-01-07T14:53:27;0.10;99.90
20839;DHT22;10580;51.092;6.828;2024-01-07T14:55:54;0.10;1.00
20839;DHT22;10580;51.092;6.828;2024-01-07T14:58:19;0.00;99.90
20839;DHT22;10580;51.092;6.828;2024-01-07T15:00:46;0.00;99.90
20839;DHT22;10580;51.092;6.828;2024-01-07T15:03:13;0.00;99.90
20839;DHT22;10580;51.092;6.828;2024-01-07T15:05:38;0.00;99.90
20839;DHT22;10580;51.092;6.828;2024-01-07T15:08:05;0.00;99.90
20839;DHT22;10580;51.092;6.828;2024-01-07T15:10:31;0.00;99.90
20839;DHT22;10580;51.092;6.828;2024-01-07T15:12:58;0.00;99.90
20839;DHT22;10580;51.092;6.828;2024-01-07T15:15:24;0.00;99.90
20839;DHT22;10580;51.092;6.828;2024-01-07T15:17:57;0.00;99.90
20839;DHT22;10580;51.092;6.828;2024-01-07T15:20:23;0.00;99.90
20839;DHT22;10580;51.092;6.828;2024-01-07T15:22:49;0.10;99.90
20839;DHT22;10580;51.092;6.828;2024-01-07T15:25:16;0.00;99.90
20839;DHT22;10580;51.092;6.828;2024-01-07T15:27:41;0.10;99.90
20839;DHT22;10580;51.092;6.828;2024-01-07T15:30:07;0.00;99.90
20839;DHT22;10580;51.092;6.828;2024-01-07T15:32:33;0.00;24.50
20839;DHT22;10580;51.092;6.828;2024-01-07T15:34:59;-0.10;57.70
20839;DHT22;10580;51.092;6.828;2024-01-07T15:37:25;-0.10;1.00
20839;DHT22;10580;51.092;6.828;2024-01-07T15:39:50;-0.10;1.00
20839;DHT22;10580;51.092;6.828;2024-01-07T15:42:17;-0.10;99.90
20839;DHT22;10580;51.092;6.828;2024-01-07T15:44:42;-0.10;1.00
20839;DHT22;10580;51.092;6.828;2024-01-07T15:47:09;-0.10;1.00
20839;DHT22;10580;51.092;6.828;2024-01-07T15:49:35;-0.10;1.00
20839;DHT22;10580;51.092;6.828;2024-01-07T15:52:00;-0.10;1.00